sensor_id;sensor_type;location;lat;lon;timestamp;pressure;altitude;pressure_sealevel;temperature;humidity
78313;BME280;67568;47.438;21.408;2023-03-23T00:01:48;100492.16;;;7.86;67.11
78313;BME280;67568;47.438;21.408;2023-03-23T00:04:14;100499.81;;;7.99;65.53
78313;BME280;67568;47.438;21.408;2023-03-23T00:06:39;100495.69;;;7.97;65.88
78313;BME280;67568;47.438;21.408;2023-03-23T00:09:05;100495.47;;;7.83;66.88
78313;BME280;67568;47.438;21.408;2023-03-23T00:11:32;100498.75;;;7.85;67.69
78313;BME280;67568;47.438;21.408;2023-03-23T00:13:59;100494.66;;;7.77;66.69
78313;BME280;67568;47.438;21.408;2023-03-23T00:16:25;100493.81;;;7.77;66.72
78313;BME280;67568;47.438;21.408;2023-03-23T00:18:51;100488.31;;;7.77;67.15
78313;BME280;67568;47.438;21.408;2023-03-23T00:21:16;100485.03;;;7.70;66.90
78313;BME280;67568;47.438;21.408;2023-03-23T00:23:42;100487.22;;;7.68;67.98
78313;BME280;67568;47.438;21.408;2023-03-23T00:26:07;100495.22;;;7.69;67.15
78313;BME280;67568;47.438;21.408;2023-03-23T00:28:33;100493.56;;;7.68;68.07
78313;BME280;67568;47.438;21.408;2023-03-23T00:31:03;100491.66;;;7.69;67.28
78313;BME280;67568;47.438;21.408;2023-03-23T00:33:31;100488.59;;;7.65;66.94
78313;BME280;67568;47.438;21.408;2023-03-23T00:35:57;100489.47;;;7.60;67.96
78313;BME280;67568;47.438;21.408;2023-03-23T00:38:23;100488.34;;;7.61;67.60
78313;BME280;67568;47.438;21.408;2023-03-23T00:40:49;100498.81;;;7.64;67.35
78313;BME280;67568;47.438;21.408;2023-03-23T00:43:17;100490.28;;;7.61;66.77
78313;BME280;67568;47.438;21.408;2023-03-23T00:45:43;100491.09;;;7.61;66.73
78313;BME280;67568;47.438;21.408;2023-03-23T00:48:09;100482.81;;;7.72;66.24
78313;BME280;67568;47.438;21.408;2023-03-23T00:50:34;100484.16;;;7.79;67.04
78313;BME280;67568;47.438;21.408;2023-03-23T00:53:00;100484.16;;;7.79;65.67
78313;BME280;67568;47.438;21.408;2023-03-23T00:55:25;100487.19;;;7.83;66.08
78313;BME280;67568;47.438;21.408;2023-03-23T00:57:53;100490.47;;;7.85;66.17
78313;BME280;67568;47.438;21.408;2023-03-23T01:00:19;100495.19;;;7.79;66.15
78313;BME280;67568;47.438;21.408;2023-03-23T01:02:45;100485.28;;;7.78;66.59
78313;BME280;67568;47.438;21.408;2023-03-23T01:05:11;100476.75;;;7.75;66.57
78313;BME280;67568;47.438;21.408;2023-03-23T01:07:37;100479.25;;;7.66;67.72
78313;BME280;67568;47.438;21.408;2023-03-23T01:10:03;100477.00;;;7.68;66.77
78313;BME280;67568;47.438;21.408;2023-03-23T01:12:29;100485.63;;;7.36;67.86
78313;BME280;67568;47.438;21.408;2023-03-23T01:14:57;100483.44;;;7.43;67.47
78313;BME280;67568;47.438;21.408;2023-03-23T01:17:23;100481.75;;;7.42;67.40
78313;BME280;67568;47.438;21.408;2023-03-23T01:19:48;100480.69;;;7.38;66.81
78313;BME280;67568;47.438;21.408;2023-03-23T01:22:13;100485.06;;;7.39;68.00
78313;BME280;67568;47.438;21.408;2023-03-23T01:24:39;100480.69;;;7.43;67.65
78313;BME280;67568;47.438;21.408;2023-03-23T01:27:04;100482.03;;;7.56;67.51
78313;BME280;67568;47.438;21.408;2023-03-23T01:29:30;100489.16;;;7.62;67.37
78313;BME280;67568;47.438;21.408;2023-03-23T01:31:55;100487.22;;;7.68;66.12
78313;BME280;67568;47.438;21.408;2023-03-23T01:34:21;100479.50;;;7.70;66.40
78313;BME280;67568;47.438;21.408;2023-03-23T01:36:46;100478.69;;;7.74;67.24
78313;BME280;67568;47.438;21.408;2023-03-23T01:39:11;100482.25;;;7.75;65.89
78313;BME280;67568;47.438;21.408;2023-03-23T01:41:37;100483.06;;;7.75;67.58
78313;BME280;67568;47.438;21.408;2023-03-23T01:44:59;100485.03;;;7.70;67.14
78313;BME280;67568;47.438;21.408;2023-03-23T01:46:52;100478.38;;;7.76;66.31
78313;BME280;67568;47.438;21.408;2023-03-23T01:49:21;100483.66;;;7.72;65.44
78313;BME280;67568;47.438;21.408;2023-03-23T01:51:55;100471.22;;;7.70;65.83
78313;BME280;67568;47.438;21.408;2023-03-23T01:54:24;100477.56;;;7.65;66.13
78313;BME280;67568;47.438;21.408;2023-03-23T01:57:12;100472.63;;;7.57;65.95
78313;BME280;67568;47.438;21.408;2023-03-23T01:59:42;100470.72;;;7.47;65.51
78313;BME280;67568;47.438;21.408;2023-03-23T02:02:09;100471.28;;;7.54;66.89
78313;BME280;67568;47.438;21.408;2023-03-23T02:04:34;100469.66;;;7.43;66.10
78313;BME280;67568;47.438;21.408;2023-03-23T02:07:00;100477.38;;;7.36;66.07
78313;BME280;67568;47.438;21.408;2023-03-23T02:09:26;100475.47;;;7.26;66.86
78313;BME280;67568;47.438;21.408;2023-03-23T02:11:54;100475.16;;;7.28;67.18
78313;BME280;67568;47.438;21.408;2023-03-23T02:14:20;100477.94;;;7.17;67.13
78313;BME280;67568;47.438;21.408;2023-03-23T02:17:29;100478.50;;;7.14;66.44
78313;BME280;67568;47.438;21.408;2023-03-23T02:35:46;100491.69;;;6.76;67.39
78313;BME280;67568;47.438;21.408;2023-03-23T02:38:17;100500.22;;;6.80;67.46
78313;BME280;67568;47.438;21.408;2023-03-23T02:40:46;100499.41;;;6.69;67.53
78313;BME280;67568;47.438;21.408;2023-03-23T02:43:20;100498.81;;;6.62;67.05
78313;BME280;67568;47.438;21.408;2023-03-23T02:45:48;100502.09;;;6.54;67.24
78313;BME280;67568;47.438;21.408;2023-03-23T02:48:17;100502.66;;;6.51;67.50
78313;BME280;67568;47.438;21.408;2023-03-23T02:50:46;100496.59;;;6.54;68.06
78313;BME280;67568;47.438;21.408;2023-03-23T02:53:18;100500.44;;;6.48;68.14
78313;BME280;67568;47.438;21.408;2023-03-23T02:55:47;100500.41;;;6.43;68.31
78313;BME280;67568;47.438;21.408;2023-03-23T02:58:13;100504.81;;;6.39;69.13
78313;BME280;67568;47.438;21.408;2023-03-23T03:00:38;100499.56;;;6.37;69.34
78313;BME280;67568;47.438;21.408;2023-03-23T03:03:09;100495.47;;;6.45;69.00
78313;BME280;67568;47.438;21.408;2023-03-23T03:11:08;100521.88;;;6.36;69.55
78313;BME280;67568;47.438;21.408;2023-03-23T03:13:48;100521.88;;;6.36;69.65
78313;BME280;67568;47.438;21.408;2023-03-23T03:21:49;100528.56;;;6.55;68.26
78313;BME280;67568;47.438;21.408;2023-03-23T03:24:18;100523.84;;;6.50;68.24
78313;BME280;67568;47.438;21.408;2023-03-23T03:26:47;100527.97;;;6.53;68.40
78313;BME280;67568;47.438;21.408;2023-03-23T03:29:20;100522.47;;;6.53;68.27
78313;BME280;67568;47.438;21.408;2023-03-23T03:31:47;100525.78;;;6.50;68.18
78313;BME280;67568;47.438;21.408;2023-03-23T03:34:15;100521.88;;;6.46;68.63
78313;BME280;67568;47.438;21.408;2023-03-23T03:36:41;100526.56;;;6.45;68.95
78313;BME280;67568;47.438;21.408;2023-03-23T03:39:09;100522.44;;;6.38;68.93
78313;BME280;67568;47.438;21.408;2023-03-23T03:41:36;100522.44;;;6.38;68.21
78313;BME280;67568;47.438;21.408;2023-03-23T03:44:05;100529.03;;;6.37;68.43
78313;BME280;67568;47.438;21.408;2023-03-23T03:46:31;100530.13;;;6.36;67.95
78313;BME280;67568;47.438;21.408;2023-03-23T03:48:57;100543.84;;;6.25;68.63
78313;BME280;67568;47.438;21.408;2023-03-23T03:51:24;100525.63;;;6.14;69.40
78313;BME280;67568;47.438;21.408;2023-03-23T03:53:51;100525.63;;;6.14;69.27
78313;BME280;67568;47.438;21.408;2023-03-23T03:56:17;100531.44;;;6.18;68.80
78313;BME280;67568;47.438;21.408;2023-03-23T03:58:42;100522.06;;;6.14;68.78
78313;BME280;67568;47.438;21.408;2023-03-23T04:01:09;100533.34;;;6.12;69.23
78313;BME280;67568;47.438;21.408;2023-03-23T04:03:34;100527.25;;;6.05;69.66
78313;BME280;67568;47.438;21.408;2023-03-23T04:06:00;100521.47;;;6.01;69.58
78313;BME280;67568;47.438;21.408;2023-03-23T04:08:26;100529.97;;;6.00;69.55
78313;BME280;67568;47.438;21.408;2023-03-23T04:10:51;100531.09;;;6.04;69.20
78313;BME280;67568;47.438;21.408;2023-03-23T04:13:17;100534.09;;;6.02;69.04
78313;BME280;67568;47.438;21.408;2023-03-23T04:15:44;100531.06;;;5.99;69.15
78313;BME280;67568;47.438;21.408;2023-03-23T04:18:09;100526.97;;;6.01;68.72
78313;BME280;67568;47.438;21.408;2023-03-23T04:20:35;100533.53;;;6.00;69.10
78313;BME280;67568;47.438;21.408;2023-03-23T04:23:00;100525.84;;;6.02;69.32
78313;BME280;67568;47.438;21.408;2023-03-23T04:25:26;100533.72;;;5.89;69.46
78313;BME280;67568;47.438;21.408;2023-03-23T04:27:52;100533.19;;;5.86;69.68
78313;BME280;67568;47.438;21.408;2023-03-23T04:30:23;100537.81;;;5.81;69.29
78313;BME280;67568;47.438;21.408;2023-03-23T04:32:49;100534.25;;;5.85;69.06
78313;BME280;67568;47.438;21.408;2023-03-23T04:35:16;100536.47;;;5.83;70.02
78313;BME280;67568;47.438;21.408;2023-03-23T04:37:42;100538.41;;;5.88;68.69
78313;BME280;67568;47.438;21.408;2023-03-23T04:40:08;100537.03;;;5.91;68.68
78313;BME280;67568;47.438;21.408;2023-03-23T04:42:34;100539.03;;;5.95;68.76
78313;BME280;67568;47.438;21.408;2023-03-23T04:44:59;100540.44;;;5.98;68.67
78313;BME280;67568;47.438;21.408;2023-03-23T04:47:26;100545.34;;;5.96;68.63
78313;BME280;67568;47.438;21.408;2023-03-23T04:49:52;100547.53;;;5.94;68.23
78313;BME280;67568;47.438;21.408;2023-03-23T04:52:17;100541.50;;;5.97;68.22
78313;BME280;67568;47.438;21.408;2023-03-23T04:54:46;100541.22;;;5.93;68.94
78313;BME280;67568;47.438;21.408;2023-03-23T04:57:11;100544.19;;;5.92;68.12
78313;BME280;67568;47.438;21.408;2023-03-23T04:59:40;100543.63;;;5.84;69.38
78313;BME280;67568;47.438;21.408;2023-03-23T05:02:05;100554.66;;;5.90;69.09
78313;BME280;67568;47.438;21.408;2023-03-23T05:04:31;100549.41;;;5.88;68.66
78313;BME280;67568;47.438;21.408;2023-03-23T05:06:56;100556.66;;;5.99;68.22
78313;BME280;67568;47.438;21.408;2023-03-23T05:09:24;100554.19;;;6.03;67.87
78313;BME280;67568;47.438;21.408;2023-03-23T05:11:50;100563.41;;;6.34;67.26
78313;BME280;67568;47.438;21.408;2023-03-23T05:14:15;100559.66;;;6.56;67.17
78313;BME280;67568;47.438;21.408;2023-03-23T05:16:41;100556.69;;;6.72;66.79
78313;BME280;67568;47.438;21.408;2023-03-23T05:19:06;100567.19;;;7.01;66.67
78313;BME280;67568;47.438;21.408;2023-03-23T05:21:32;100559.25;;;7.20;65.41
78313;BME280;67568;47.438;21.408;2023-03-23T05:23:57;100565.03;;;7.44;65.32
78313;BME280;67568;47.438;21.408;2023-03-23T05:26:23;100558.41;;;7.55;65.64
78313;BME280;67568;47.438;21.408;2023-03-23T05:28:49;100563.88;;;7.76;65.47
78313;BME280;67568;47.438;21.408;2023-03-23T05:31:14;100575.69;;;8.07;64.25
78313;BME280;67568;47.438;21.408;2023-03-23T05:33:40;100580.31;;;8.22;63.60
78313;BME280;67568;47.438;21.408;2023-03-23T05:36:06;100582.50;;;8.35;65.03
78313;BME280;67568;47.438;21.408;2023-03-23T05:38:31;100579.25;;;8.23;63.95
78313;BME280;67568;47.438;21.408;2023-03-23T05:41:00;100572.00;;;8.47;63.92
78313;BME280;67568;47.438;21.408;2023-03-23T05:43:26;100579.63;;;8.71;64.28
78313;BME280;67568;47.438;21.408;2023-03-23T05:45:51;100580.59;;;8.90;62.93
78313;BME280;67568;47.438;21.408;2023-03-23T05:48:17;100587.16;;;9.05;61.88
78313;BME280;67568;47.438;21.408;2023-03-23T05:50:42;100587.09;;;9.15;62.83
78313;BME280;67568;47.438;21.408;2023-03-23T05:53:08;100584.53;;;9.23;62.64
78313;BME280;67568;47.438;21.408;2023-03-23T05:55:33;100583.69;;;9.62;62.17
78313;BME280;67568;47.438;21.408;2023-03-23T05:57:59;100579.78;;;9.93;61.00
78313;BME280;67568;47.438;21.408;2023-03-23T06:00:24;100580.06;;;10.20;60.31
78313;BME280;67568;47.438;21.408;2023-03-23T06:02:53;100582.69;;;10.60;59.07
78313;BME280;67568;47.438;21.408;2023-03-23T06:05:19;100579.47;;;10.71;58.71
78313;BME280;67568;47.438;21.408;2023-03-23T06:07:45;100575.53;;;10.96;58.16
78313;BME280;67568;47.438;21.408;2023-03-23T06:10:10;100577.88;;;11.41;57.88
78313;BME280;67568;47.438;21.408;2023-03-23T06:12:37;100586.09;;;11.65;57.41
78313;BME280;67568;47.438;21.408;2023-03-23T06:15:03;100569.56;;;11.74;56.42
78313;BME280;67568;47.438;21.408;2023-03-23T06:17:29;100584.69;;;11.67;56.99
78313;BME280;67568;47.438;21.408;2023-03-23T06:19:57;100579.53;;;11.93;56.05
78313;BME280;67568;47.438;21.408;2023-03-23T06:22:23;100580.56;;;12.11;56.12
78313;BME280;67568;47.438;21.408;2023-03-23T06:24:48;100581.75;;;12.38;55.70
78313;BME280;67568;47.438;21.408;2023-03-23T06:27:13;100585.13;;;12.49;54.68
78313;BME280;67568;47.438;21.408;2023-03-23T06:29:39;100587.06;;;12.62;54.64
78313;BME280;67568;47.438;21.408;2023-03-23T06:32:05;100585.81;;;12.82;54.61
78313;BME280;67568;47.438;21.408;2023-03-23T06:34:31;100593.28;;;13.09;53.33
78313;BME280;67568;47.438;21.408;2023-03-23T06:36:57;100591.50;;;13.13;53.94
78313;BME280;67568;47.438;21.408;2023-03-23T06:39:23;100591.06;;;13.34;53.29
78313;BME280;67568;47.438;21.408;2023-03-23T06:41:48;100598.03;;;13.45;53.66
78313;BME280;67568;47.438;21.408;2023-03-23T06:44:17;100595.06;;;13.64;53.29
78313;BME280;67568;47.438;21.408;2023-03-23T06:46:43;100601.75;;;13.85;53.20
78313;BME280;67568;47.438;21.408;2023-03-23T06:49:11;100598.88;;;14.30;51.61
78313;BME280;67568;47.438;21.408;2023-03-23T06:51:37;100600.75;;;14.92;51.15
78313;BME280;67568;47.438;21.408;2023-03-23T06:54:03;100606.22;;;15.58;48.76
78313;BME280;67568;47.438;21.408;2023-03-23T06:56:29;100607.84;;;15.59;48.12
78313;BME280;67568;47.438;21.408;2023-03-23T07:01:46;100607.03;;;15.67;48.03
78313;BME280;67568;47.438;21.408;2023-03-23T07:04:12;100602.78;;;15.44;48.38
78313;BME280;67568;47.438;21.408;2023-03-23T07:06:38;100598.34;;;15.78;48.39
78313;BME280;67568;47.438;21.408;2023-03-23T07:09:04;100612.31;;;15.43;47.36
78313;BME280;67568;47.438;21.408;2023-03-23T07:11:29;100595.88;;;15.33;48.52
78313;BME280;67568;47.438;21.408;2023-03-23T07:13:55;100603.94;;;15.51;49.27
78313;BME280;67568;47.438;21.408;2023-03-23T07:16:20;100613.06;;;16.04;47.99
78313;BME280;67568;47.438;21.408;2023-03-23T07:18:46;100623.78;;;15.85;47.06
78313;BME280;67568;47.438;21.408;2023-03-23T07:21:12;100622.69;;;16.33;46.37
78313;BME280;67568;47.438;21.408;2023-03-23T07:23:38;100608.94;;;16.57;45.87
78313;BME280;67568;47.438;21.408;2023-03-23T07:26:04;100610.81;;;17.34;45.66
78313;BME280;67568;47.438;21.408;2023-03-23T07:28:49;100603.03;;;17.39;44.77
78313;BME280;67568;47.438;21.408;2023-03-23T07:31:18;100603.75;;;17.06;45.48
78313;BME280;67568;47.438;21.408;2023-03-23T07:33:44;100611.19;;;17.65;44.38
78313;BME280;67568;47.438;21.408;2023-03-23T07:36:10;100608.03;;;17.88;43.16
78313;BME280;67568;47.438;21.408;2023-03-23T07:38:36;100610.69;;;17.84;43.31
78313;BME280;67568;47.438;21.408;2023-03-23T07:41:01;100613.88;;;17.20;44.38
78313;BME280;67568;47.438;21.408;2023-03-23T07:43:39;100610.09;;;17.58;43.69
78313;BME280;67568;47.438;21.408;2023-03-23T07:46:12;100605.38;;;17.70;42.46
78313;BME280;67568;47.438;21.408;2023-03-23T07:48:38;100615.69;;;18.12;42.77
78313;BME280;67568;47.438;21.408;2023-03-23T07:51:05;100614.06;;;18.11;41.79
78313;BME280;67568;47.438;21.408;2023-03-23T07:53:34;100622.50;;;18.23;40.64
78313;BME280;67568;47.438;21.408;2023-03-23T07:56:02;100615.00;;;18.85;40.60
78313;BME280;67568;47.438;21.408;2023-03-23T07:58:31;100615.88;;;19.14;38.97
78313;BME280;67568;47.438;21.408;2023-03-23T08:00:56;100611.72;;;19.48;39.52
78313;BME280;67568;47.438;21.408;2023-03-23T08:03:21;100616.97;;;19.90;38.12
78313;BME280;67568;47.438;21.408;2023-03-23T08:05:47;100620.06;;;20.60;37.12
78313;BME280;67568;47.438;21.408;2023-03-23T08:08:13;100602.28;;;21.07;35.91
78313;BME280;67568;47.438;21.408;2023-03-23T08:10:39;100617.13;;;21.59;35.83
78313;BME280;67568;47.438;21.408;2023-03-23T08:13:05;100615.50;;;21.77;35.86
78313;BME280;67568;47.438;21.408;2023-03-23T08:15:39;100614.91;;;21.49;34.76
78313;BME280;67568;47.438;21.408;2023-03-23T08:18:05;100606.34;;;21.45;35.35
78313;BME280;67568;47.438;21.408;2023-03-23T08:20:31;100607.03;;;21.03;35.71
78313;BME280;67568;47.438;21.408;2023-03-23T08:22:56;100602.31;;;20.92;36.05
78313;BME280;67568;47.438;21.408;2023-03-23T08:25:25;100607.50;;;20.42;36.65
78313;BME280;67568;47.438;21.408;2023-03-23T08:27:51;100606.44;;;20.62;36.38
78313;BME280;67568;47.438;21.408;2023-03-23T08:30:19;100609.72;;;20.64;36.73
78313;BME280;67568;47.438;21.408;2023-03-23T08:32:45;100620.16;;;20.64;36.94
78313;BME280;67568;47.438;21.408;2023-03-23T08:35:12;100603.19;;;21.31;36.13
78313;BME280;67568;47.438;21.408;2023-03-23T08:37:38;100616.00;;;21.44;35.14
78313;BME280;67568;47.438;21.408;2023-03-23T08:40:05;100617.50;;;21.38;35.78
78313;BME280;67568;47.438;21.408;2023-03-23T08:42:31;100622.13;;;20.79;35.98
78313;BME280;67568;47.438;21.408;2023-03-23T08:44:56;100621.88;;;20.53;36.93
78313;BME280;67568;47.438;21.408;2023-03-23T08:47:22;100620.94;;;20.33;36.59
78313;BME280;67568;47.438;21.408;2023-03-23T08:49:50;100617.31;;;20.48;36.05
78313;BME280;67568;47.438;21.408;2023-03-23T08:52:15;100611.91;;;20.55;35.79
78313;BME280;67568;47.438;21.408;2023-03-23T08:54:41;100624.31;;;20.38;35.62
78313;BME280;67568;47.438;21.408;2023-03-23T08:57:06;100618.03;;;20.77;36.25
78313;BME280;67568;47.438;21.408;2023-03-23T08:59:31;100630.03;;;21.41;35.41
78313;BME280;67568;47.438;21.408;2023-03-23T09:01:57;100625.31;;;21.84;34.52
78313;BME280;67568;47.438;21.408;2023-03-23T09:04:22;100629.75;;;22.47;33.17
78313;BME280;67568;47.438;21.408;2023-03-23T09:06:48;100630.94;;;23.18;32.35
78313;BME280;67568;47.438;21.408;2023-03-23T09:09:19;100630.47;;;23.43;31.97
78313;BME280;67568;47.438;21.408;2023-03-23T09:11:44;100639.72;;;23.13;31.69
78313;BME280;67568;47.438;21.408;2023-03-23T09:14:19;100634.66;;;24.16;30.58
78313;BME280;67568;47.438;21.408;2023-03-23T09:16:48;100636.09;;;24.03;31.24
78313;BME280;67568;47.438;21.408;2023-03-23T09:19:14;100631.88;;;25.89;27.71
78313;BME280;67568;47.438;21.408;2023-03-23T09:21:40;100637.78;;;26.79;26.67
78313;BME280;67568;47.438;21.408;2023-03-23T09:24:08;100629.63;;;26.99;25.96
78313;BME280;67568;47.438;21.408;2023-03-23T09:26:34;100632.84;;;27.36;25.27
78313;BME280;67568;47.438;21.408;2023-03-23T09:28:59;100627.88;;;27.62;25.73
78313;BME280;67568;47.438;21.408;2023-03-23T09:31:25;100630.41;;;27.39;25.25
78313;BME280;67568;47.438;21.408;2023-03-23T09:33:50;100630.44;;;26.92;25.50
78313;BME280;67568;47.438;21.408;2023-03-23T09:36:16;100620.53;;;27.68;24.80
78313;BME280;67568;47.438;21.408;2023-03-23T09:38:42;100630.84;;;28.25;24.69
78313;BME280;67568;47.438;21.408;2023-03-23T09:47:10;100606.81;;;26.20;26.31
78313;BME280;67568;47.438;21.408;2023-03-23T09:49:51;100622.94;;;27.77;23.54
78313;BME280;67568;47.438;21.408;2023-03-23T09:52:22;100617.28;;;27.66;24.17
78313;BME280;67568;47.438;21.408;2023-03-23T09:54:54;100611.75;;;28.74;22.96
78313;BME280;67568;47.438;21.408;2023-03-23T10:00:10;100621.38;;;28.91;21.75
78313;BME280;67568;47.438;21.408;2023-03-23T10:02:59;100623.88;;;28.89;22.78
78313;BME280;67568;47.438;21.408;2023-03-23T10:08:08;100609.28;;;27.32;24.88
78313;BME280;67568;47.438;21.408;2023-03-23T10:13:20;100588.84;;;25.73;25.86
78313;BME280;67568;47.438;21.408;2023-03-23T10:15:49;100595.44;;;25.18;27.15
78313;BME280;67568;47.438;21.408;2023-03-23T10:21:22;100594.38;;;24.82;26.99
78313;BME280;67568;47.438;21.408;2023-03-23T10:23:56;100582.53;;;26.76;25.92
78313;BME280;67568;47.438;21.408;2023-03-23T10:29:14;100586.03;;;28.25;23.13
78313;BME280;67568;47.438;21.408;2023-03-23T10:31:55;100583.13;;;28.85;22.92
78313;BME280;67568;47.438;21.408;2023-03-23T10:34:28;100580.19;;;28.51;23.10
78313;BME280;67568;47.438;21.408;2023-03-23T10:37:10;100574.38;;;27.00;24.35
78313;BME280;67568;47.438;21.408;2023-03-23T10:39:52;100560.59;;;26.69;24.24
78313;BME280;67568;47.438;21.408;2023-03-23T10:42:28;100571.13;;;27.01;24.09
78313;BME280;67568;47.438;21.408;2023-03-23T10:44:56;100565.31;;;28.74;22.62
78313;BME280;67568;47.438;21.408;2023-03-23T10:47:22;100567.81;;;28.68;22.49
78313;BME280;67568;47.438;21.408;2023-03-23T10:50:03;100570.38;;;27.96;24.12
78313;BME280;67568;47.438;21.408;2023-03-23T10:52:37;100562.19;;;28.05;23.32
78313;BME280;67568;47.438;21.408;2023-03-23T10:55:07;100556.53;;;26.81;24.24
78313;BME280;67568;47.438;21.408;2023-03-23T10:57:35;100545.09;;;25.85;25.89
78313;BME280;67568;47.438;21.408;2023-03-23T11:02:38;100557.22;;;24.94;26.88
78313;BME280;67568;47.438;21.408;2023-03-23T11:05:20;100558.38;;;24.38;27.02
78313;BME280;67568;47.438;21.408;2023-03-23T11:07:53;100548.22;;;23.92;28.26
78313;BME280;67568;47.438;21.408;2023-03-23T11:12:47;100538.97;;;25.79;26.05
78313;BME280;67568;47.438;21.408;2023-03-23T11:15:32;100534.97;;;25.87;25.96
78313;BME280;67568;47.438;21.408;2023-03-23T11:18:04;100532.06;;;27.23;23.81
78313;BME280;67568;47.438;21.408;2023-03-23T11:20:35;100551.41;;;29.55;21.97
78313;BME280;67568;47.438;21.408;2023-03-23T11:23:09;100530.03;;;30.72;20.28
78313;BME280;67568;47.438;21.408;2023-03-23T11:25:51;100527.38;;;30.61;20.08
78313;BME280;67568;47.438;21.408;2023-03-23T11:28:18;100539.56;;;30.88;20.34
78313;BME280;67568;47.438;21.408;2023-03-23T11:30:44;100535.03;;;30.91;18.74
78313;BME280;67568;47.438;21.408;2023-03-23T11:33:10;100521.66;;;31.04;19.21
78313;BME280;67568;47.438;21.408;2023-03-23T11:35:36;100527.38;;;28.32;22.45
78313;BME280;67568;47.438;21.408;2023-03-23T11:38:02;100512.69;;;26.39;24.38
78313;BME280;67568;47.438;21.408;2023-03-23T11:40:30;100518.50;;;25.20;26.05
78313;BME280;67568;47.438;21.408;2023-03-23T11:48:18;100498.75;;;24.20;27.26
78313;BME280;67568;47.438;21.408;2023-03-23T11:50:50;100491.34;;;23.67;27.45
78313;BME280;67568;47.438;21.408;2023-03-23T11:56:37;100483.75;;;22.77;29.53
78313;BME280;67568;47.438;21.408;2023-03-23T11:59:11;100486.84;;;22.95;28.74
78313;BME280;67568;47.438;21.408;2023-03-23T12:01:57;100472.03;;;22.75;28.93
78313;BME280;67568;47.438;21.408;2023-03-23T12:10:27;100456.59;;;21.93;30.94
78313;BME280;67568;47.438;21.408;2023-03-23T12:16:05;100461.72;;;21.64;30.50
78313;BME280;67568;47.438;21.408;2023-03-23T12:26:45;100458.03;;;21.60;30.91
78313;BME280;67568;47.438;21.408;2023-03-23T12:41:17;100439.03;;;20.95;31.34
78313;BME280;67568;47.438;21.408;2023-03-23T12:44:12;100439.03;;;20.95;32.27
78313;BME280;67568;47.438;21.408;2023-03-23T12:47:10;100443.97;;;21.02;32.14
78313;BME280;67568;47.438;21.408;2023-03-23T12:49:45;100443.28;;;21.08;32.63
78313;BME280;67568;47.438;21.408;2023-03-23T12:54:53;100435.00;;;20.96;32.53
78313;BME280;67568;47.438;21.408;2023-03-23T12:57:29;100440.50;;;20.89;32.74
78313;BME280;67568;47.438;21.408;2023-03-23T13:02:33;100442.69;;;20.80;33.45
78313;BME280;67568;47.438;21.408;2023-03-23T13:05:09;100442.19;;;20.74;33.19
78313;BME280;67568;47.438;21.408;2023-03-23T13:07:45;100439.53;;;20.81;33.78
78313;BME280;67568;47.438;21.408;2023-03-23T13:10:33;100445.69;;;20.87;34.69
78313;BME280;67568;47.438;21.408;2023-03-23T13:13:01;100443.44;;;20.77;34.54
78313;BME280;67568;47.438;21.408;2023-03-23T13:15:35;100434.97;;;20.57;33.92
78313;BME280;67568;47.438;21.408;2023-03-23T13:21:11;100424.44;;;20.54;34.07
78313;BME280;67568;47.438;21.408;2023-03-23T13:23:46;100420.78;;;20.70;34.74
78313;BME280;67568;47.438;21.408;2023-03-23T13:26:19;100421.59;;;20.70;33.76
78313;BME280;67568;47.438;21.408;2023-03-23T13:31:23;100411.28;;;20.58;34.73
78313;BME280;67568;47.438;21.408;2023-03-23T13:33:50;100399.22;;;20.42;33.88
78313;BME280;67568;47.438;21.408;2023-03-23T13:36:24;100410.34;;;20.19;34.63
78313;BME280;67568;47.438;21.408;2023-03-23T13:38:50;100405.06;;;20.17;34.55
78313;BME280;67568;47.438;21.408;2023-03-23T13:41:18;100408.91;;;20.09;34.96
78313;BME280;67568;47.438;21.408;2023-03-23T13:43:44;100405.00;;;20.14;34.78
78313;BME280;67568;47.438;21.408;2023-03-23T13:46:25;100397.94;;;19.88;34.89
78313;BME280;67568;47.438;21.408;2023-03-23T13:49:20;100406.56;;;19.80;35.49
78313;BME280;67568;47.438;21.408;2023-03-23T13:51:56;100398.81;;;19.61;35.43
78313;BME280;67568;47.438;21.408;2023-03-23T13:54:30;100402.09;;;19.47;35.83
78313;BME280;67568;47.438;21.408;2023-03-23T13:57:02;100407.19;;;19.41;35.51
78313;BME280;67568;47.438;21.408;2023-03-23T13:59:33;100405.69;;;19.31;35.64
78313;BME280;67568;47.438;21.408;2023-03-23T14:02:37;100399.63;;;19.29;36.10
78313;BME280;67568;47.438;21.408;2023-03-23T14:10:19;100399.63;;;19.29;36.19
78313;BME280;67568;47.438;21.408;2023-03-23T14:12:46;100407.34;;;19.32;36.06
78313;BME280;67568;47.438;21.408;2023-03-23T14:15:14;100398.47;;;19.46;36.46
78313;BME280;67568;47.438;21.408;2023-03-23T14:17:45;100392.94;;;19.50;35.63
78313;BME280;67568;47.438;21.408;2023-03-23T14:20:27;100387.69;;;19.64;36.85
78313;BME280;67568;47.438;21.408;2023-03-23T14:22:55;100387.81;;;19.84;35.52
78313;BME280;67568;47.438;21.408;2023-03-23T14:25:22;100385.25;;;19.94;34.80
78313;BME280;67568;47.438;21.408;2023-03-23T14:27:51;100379.53;;;19.91;35.31
78313;BME280;67568;47.438;21.408;2023-03-23T14:30:20;100385.78;;;20.00;35.37
78313;BME280;67568;47.438;21.408;2023-03-23T14:32:46;100378.06;;;19.97;35.59
78313;BME280;67568;47.438;21.408;2023-03-23T14:35:48;100377.66;;;19.79;35.33
78313;BME280;67568;47.438;21.408;2023-03-23T14:38:20;100381.53;;;19.74;34.90
78313;BME280;67568;47.438;21.408;2023-03-23T14:40:47;100373.28;;;19.66;35.75
78313;BME280;67568;47.438;21.408;2023-03-23T14:43:17;100380.72;;;19.58;35.77